createdAt,value
2023-05-17T00:02:45.650Z,4.20
2023-05-17T00:05:43.153Z,4.90
2023-05-17T00:08:40.773Z,4.00
2023-05-17T00:11:38.262Z,4.30
2023-05-17T00:14:36.146Z,3.70
2023-05-17T00:17:33.735Z,5.30
2023-05-17T00:20:31.587Z,3.90
2023-05-17T00:23:29.032Z,3.80
2023-05-17T00:26:26.657Z,3.90
2023-05-17T00:29:24.349Z,3.10
2023-05-17T00:32:21.803Z,3.20
2023-05-17T00:35:19.646Z,3.30
2023-05-17T00:38:17.107Z,3.30
2023-05-17T00:41:14.901Z,3.00
2023-05-17T00:44:12.376Z,2.70
2023-05-17T00:47:10.561Z,2.80
2023-05-17T00:50:08.014Z,2.90
2023-05-17T00:53:05.871Z,3.30
2023-05-17T00:56:03.372Z,2.40
2023-05-17T00:59:01.191Z,4.10
2023-05-17T01:01:58.976Z,2.20
2023-05-17T01:04:56.506Z,2.30
2023-05-17T01:07:54.180Z,2.20
2023-05-17T01:10:51.936Z,2.20
2023-05-17T01:13:49.745Z,2.00
2023-05-17T01:16:47.271Z,2.00
2023-05-17T01:19:45.102Z,2.20
2023-05-17T01:22:42.743Z,1.80
2023-05-17T01:25:40.491Z,2.20
2023-05-17T01:28:37.975Z,2.10
2023-05-17T01:31:35.602Z,2.20
2023-05-17T01:34:33.041Z,1.80
2023-05-17T01:37:30.710Z,2.10
2023-05-17T01:40:28.156Z,2.00
2023-05-17T01:43:25.794Z,1.70
2023-05-17T01:46:23.628Z,2.40
2023-05-17T01:49:21.082Z,1.80
2023-05-17T01:52:18.873Z,1.90
2023-05-17T01:55:16.333Z,1.30
2023-05-17T01:58:13.943Z,1.60
2023-05-17T02:01:11.750Z,1.50
2023-05-17T02:04:09.459Z,1.70
2023-05-17T02:07:07.178Z,1.50
2023-05-17T02:10:04.887Z,1.80
2023-05-17T02:13:02.618Z,1.70
2023-05-17T02:16:00.058Z,1.60
2023-05-17T02:18:57.796Z,1.50
2023-05-17T02:21:55.815Z,2.00
2023-05-17T02:24:53.324Z,1.80
2023-05-17T02:27:51.140Z,2.30
2023-05-17T02:30:48.630Z,1.90
2023-05-17T02:33:46.452Z,2.10
2023-05-17T02:36:45.037Z,2.10
2023-05-17T02:39:42.552Z,1.50
2023-05-17T02:42:40.312Z,2.00
2023-05-17T02:45:37.811Z,1.90
2023-05-17T02:48:36.355Z,2.00
2023-05-17T02:51:34.102Z,2.20
2023-05-17T02:54:31.528Z,2.00
2023-05-17T02:57:29.322Z,2.10
2023-05-17T03:00:26.887Z,2.50
2023-05-17T03:03:25.002Z,2.10
2023-05-17T03:06:22.669Z,2.00
2023-05-17T03:09:21.215Z,2.60
2023-05-17T03:12:18.845Z,4.20
2023-05-17T03:15:16.586Z,3.20
2023-05-17T03:18:14.435Z,2.20
2023-05-17T03:21:12.100Z,3.00
2023-05-17T03:24:09.721Z,2.70
2023-05-17T03:27:07.220Z,2.30
2023-05-17T03:30:04.918Z,3.00
2023-05-17T03:33:02.421Z,2.90
2023-05-17T03:36:00.386Z,3.00
2023-05-17T03:38:58.071Z,4.60
2023-05-17T03:41:55.574Z,2.20
2023-05-17T03:44:53.325Z,2.30
2023-05-17T03:47:50.845Z,2.70
2023-05-17T03:50:48.537Z,3.40
2023-05-17T03:53:45.967Z,4.00
2023-05-17T03:56:47.390Z,3.30
2023-05-17T03:59:45.103Z,2.50
2023-05-17T04:02:42.618Z,3.70
2023-05-17T04:05:40.452Z,4.30
2023-05-17T04:08:37.879Z,2.50
2023-05-17T04:11:35.591Z,3.00
2023-05-17T04:14:33.029Z,3.20
2023-05-17T04:17:31.208Z,3.30
2023-05-17T04:20:28.757Z,2.10
2023-05-17T04:26:45.916Z,2.10
2023-05-17T04:29:43.408Z,2.00
2023-05-17T04:32:41.162Z,2.10
2023-05-17T04:35:38.628Z,3.00
2023-05-17T04:38:36.455Z,2.50
2023-05-17T04:41:33.957Z,3.70
2023-05-17T04:44:31.990Z,1.50
2023-05-17T04:47:29.612Z,2.50
2023-05-17T04:50:27.533Z,3.20
2023-05-17T04:53:25.287Z,1.40
2023-05-17T04:56:22.845Z,3.50
2023-05-17T04:59:20.719Z,2.40
2023-05-17T05:02:18.174Z,1.60
2023-05-17T05:05:16.041Z,3.60
2023-05-17T05:08:13.510Z,4.30
2023-05-17T05:11:11.139Z,2.00
2023-05-17T05:14:09.063Z,2.40
2023-05-17T05:17:06.525Z,3.40
2023-05-17T05:20:04.584Z,3.90
2023-05-17T05:23:03.901Z,4.10
2023-05-17T05:26:02.581Z,3.00
2023-05-17T05:29:00.249Z,2.90
2023-05-17T05:31:58.005Z,2.80
2023-05-17T05:34:55.452Z,3.00
2023-05-17T05:37:53.113Z,4.00
2023-05-17T05:40:50.729Z,2.80
2023-05-17T05:43:48.234Z,3.60
2023-05-17T05:46:45.929Z,3.90
2023-05-17T05:49:43.417Z,2.40
2023-05-17T05:52:41.247Z,4.80
2023-05-17T05:55:38.769Z,8.90
2023-05-17T05:58:36.453Z,4.60
2023-05-17T06:01:34.460Z,6.90
2023-05-17T06:04:41.279Z,2.50
2023-05-17T06:07:42.907Z,4.40
2023-05-17T06:10:40.404Z,3.10
2023-05-17T06:13:38.187Z,3.00
2023-05-17T06:16:35.870Z,2.90
2023-05-17T06:19:33.553Z,3.00
2023-05-17T06:22:31.509Z,3.20
2023-05-17T06:25:29.013Z,3.80
2023-05-17T06:28:26.736Z,2.10
2023-05-17T06:31:24.181Z,6.70
2023-05-17T06:34:21.991Z,4.40
2023-05-17T06:37:19.764Z,2.20
2023-05-17T06:40:17.420Z,4.10
2023-05-17T06:43:15.279Z,3.50
2023-05-17T06:46:12.712Z,2.50
2023-05-17T06:49:10.637Z,2.40
2023-05-17T06:52:08.206Z,2.10
2023-05-17T06:55:06.245Z,4.40
2023-05-17T06:58:04.794Z,4.50
2023-05-17T07:01:02.460Z,3.20
2023-05-17T07:04:00.442Z,3.40
2023-05-17T07:06:58.091Z,6.40
2023-05-17T07:09:55.784Z,3.70
2023-05-17T07:12:53.223Z,4.90
2023-05-17T07:15:51.057Z,6.00
2023-05-17T07:18:48.638Z,5.80
2023-05-17T07:21:46.558Z,5.10
2023-05-17T07:24:44.413Z,6.90
2023-05-17T07:27:41.886Z,4.10
2023-05-17T07:30:39.533Z,5.10
2023-05-17T07:33:37.028Z,3.50
2023-05-17T07:36:34.746Z,5.00
2023-05-17T07:39:32.551Z,2.80
2023-05-17T07:42:30.308Z,3.60
2023-05-17T07:45:28.601Z,4.90
2023-05-17T07:48:26.782Z,4.00
2023-05-17T07:51:24.688Z,4.00
2023-05-17T07:54:22.171Z,4.80
2023-05-17T07:57:20.092Z,7.00
2023-05-17T08:00:19.432Z,2.50
2023-05-17T08:03:17.772Z,4.50
2023-05-17T08:06:16.086Z,6.20
2023-05-17T08:09:13.665Z,4.20
2023-05-17T08:12:11.463Z,3.70
2023-05-17T08:15:09.238Z,6.40
2023-05-17T08:18:07.186Z,6.80
2023-05-17T08:21:04.748Z,6.60
2023-05-17T08:24:04.003Z,4.20
2023-05-17T08:27:02.260Z,8.30
2023-05-17T08:30:00.216Z,3.10
2023-05-17T08:32:58.040Z,4.50
2023-05-17T08:35:57.824Z,4.10
2023-05-17T08:38:55.582Z,4.90
2023-05-17T08:41:53.554Z,2.80
2023-05-17T08:44:51.295Z,5.60
2023-05-17T08:47:49.327Z,2.10
2023-05-17T08:50:47.670Z,4.50
2023-05-17T08:53:47.377Z,3.20
2023-05-17T08:56:45.274Z,5.20
2023-05-17T08:59:43.113Z,2.70
2023-05-17T09:02:40.809Z,4.30
2023-05-17T09:05:39.696Z,4.90
2023-05-17T09:08:37.273Z,2.50
2023-05-17T09:11:35.167Z,4.10
2023-05-17T09:14:32.921Z,5.60
2023-05-17T09:17:30.452Z,3.90
2023-05-17T09:20:34.552Z,4.90
2023-05-17T09:23:32.097Z,3.10
2023-05-17T09:26:29.777Z,2.60
2023-05-17T09:29:27.216Z,4.80
2023-05-17T09:32:25.654Z,5.50
2023-05-17T09:35:23.234Z,5.50
2023-05-17T09:38:22.895Z,3.00
2023-05-17T09:41:22.494Z,4.30
2023-05-17T09:44:19.931Z,5.40
2023-05-17T09:47:17.743Z,4.10
2023-05-17T09:50:15.225Z,3.60
2023-05-17T09:53:12.882Z,4.10
2023-05-17T09:56:10.550Z,3.30
2023-05-17T09:59:08.401Z,2.10
2023-05-17T10:02:05.843Z,7.00
2023-05-17T10:05:05.708Z,4.60
2023-05-17T10:08:03.655Z,4.50
2023-05-17T10:11:01.893Z,5.60
2023-05-17T10:13:59.674Z,3.60
2023-05-17T10:16:57.297Z,3.20
2023-05-17T10:19:55.318Z,3.60
2023-05-17T10:22:52.860Z,5.50
2023-05-17T10:25:50.671Z,2.00
2023-05-17T10:28:48.869Z,2.80
2023-05-17T10:31:46.569Z,3.40
2023-05-17T10:34:45.765Z,2.30
2023-05-17T10:37:43.432Z,3.60
2023-05-17T10:40:41.535Z,2.10
2023-05-17T10:43:38.963Z,2.40
2023-05-17T10:46:36.652Z,4.10
2023-05-17T10:49:34.493Z,3.20
2023-05-17T10:52:32.310Z,4.90
2023-05-17T10:55:30.070Z,3.00
2023-05-17T10:58:27.819Z,2.00
2023-05-17T11:01:25.481Z,2.90
2023-05-17T11:04:23.817Z,3.40
2023-05-17T11:07:22.380Z,4.40
2023-05-17T11:10:20.210Z,2.30
2023-05-17T11:13:17.649Z,3.00
2023-05-17T11:16:17.801Z,4.00
2023-05-17T11:19:15.557Z,5.10
2023-05-17T11:22:13.855Z,2.60
2023-05-17T11:25:11.312Z,4.10
2023-05-17T11:28:09.192Z,4.00
2023-05-17T11:31:06.899Z,7.40
2023-05-17T11:34:04.454Z,5.20
2023-05-17T11:37:03.419Z,5.30
2023-05-17T11:40:00.921Z,4.90
2023-05-17T11:42:58.638Z,6.80
2023-05-17T11:45:57.530Z,4.70
2023-05-17T11:48:55.416Z,3.20
2023-05-17T11:51:53.161Z,5.20
2023-05-17T11:54:50.618Z,5.20
2023-05-17T11:57:48.484Z,4.00
2023-05-17T12:00:46.016Z,3.60
2023-05-17T12:03:43.991Z,4.50
2023-05-17T12:06:41.522Z,4.70
2023-05-17T12:09:39.325Z,3.40
2023-05-17T12:12:37.036Z,5.60
2023-05-17T12:15:34.479Z,6.30
2023-05-17T12:18:32.372Z,2.60
2023-05-17T12:21:29.938Z,4.60
2023-05-17T12:24:27.677Z,4.50
2023-05-17T12:27:25.454Z,4.60
2023-05-17T12:30:23.965Z,4.10
2023-05-17T12:33:21.789Z,5.40
2023-05-17T12:36:19.321Z,7.00
2023-05-17T12:39:18.332Z,3.50
2023-05-17T12:42:15.778Z,2.50
2023-05-17T12:45:14.194Z,2.40
2023-05-17T12:48:11.695Z,4.60
2023-05-17T12:51:11.738Z,2.20
2023-05-17T12:54:09.948Z,3.60
2023-05-17T12:57:07.374Z,3.30
2023-05-17T13:03:24.187Z,1.80
2023-05-17T13:06:22.424Z,2.30
2023-05-17T13:09:20.124Z,5.60
2023-05-17T13:12:17.620Z,3.40
2023-05-17T13:15:15.288Z,3.50
2023-05-17T13:18:12.829Z,3.60
2023-05-17T13:21:10.768Z,4.90
2023-05-17T13:24:08.737Z,3.20
2023-05-17T13:27:06.384Z,7.70
2023-05-17T13:30:04.696Z,3.20
2023-05-17T13:33:02.310Z,3.80
2023-05-17T13:36:00.308Z,2.50
2023-05-17T13:38:57.857Z,4.30
2023-05-17T13:41:55.522Z,2.60
2023-05-17T13:44:52.979Z,3.80
2023-05-17T13:47:50.741Z,3.00
2023-05-17T13:50:48.329Z,5.90
2023-05-17T13:53:46.047Z,6.10
2023-05-17T13:56:43.869Z,7.30
2023-05-17T13:59:41.847Z,3.40
2023-05-17T14:02:40.731Z,3.00
2023-05-17T14:05:38.467Z,7.80
2023-05-17T14:08:36.159Z,3.80
2023-05-17T14:11:33.609Z,4.60
2023-05-17T14:14:32.076Z,8.00
2023-05-17T14:17:29.850Z,3.80
2023-05-17T14:20:27.459Z,3.50
2023-05-17T14:23:25.522Z,3.00
2023-05-17T14:26:23.613Z,4.80
2023-05-17T14:29:22.156Z,5.30
2023-05-17T14:32:19.675Z,3.20
2023-05-17T14:35:17.922Z,4.80
2023-05-17T14:38:15.412Z,4.20
2023-05-17T14:41:13.123Z,4.60
2023-05-17T14:44:10.903Z,5.90
2023-05-17T14:47:08.381Z,4.60
2023-05-17T14:50:06.240Z,3.00
2023-05-17T14:53:03.710Z,5.90
2023-05-17T14:56:02.385Z,5.50
2023-05-17T14:59:00.441Z,3.80
2023-05-17T15:01:57.859Z,4.60
2023-05-17T15:04:55.601Z,4.20
2023-05-17T15:07:53.344Z,5.00
2023-05-17T15:10:51.127Z,5.20
2023-05-17T15:13:48.919Z,4.90
2023-05-17T15:16:46.784Z,5.20
2023-05-17T15:19:44.375Z,6.00
2023-05-17T15:22:42.718Z,6.80
2023-05-17T15:25:40.567Z,4.90
2023-05-17T15:28:38.083Z,4.80
2023-05-17T15:31:35.878Z,9.00
2023-05-17T15:34:33.363Z,7.00
2023-05-17T15:37:31.299Z,7.50
2023-05-17T15:40:28.761Z,6.50
2023-05-17T15:43:26.556Z,4.90
2023-05-17T15:46:24.285Z,6.40
2023-05-17T15:49:21.862Z,5.00
2023-05-17T15:52:19.745Z,4.20
2023-05-17T15:55:17.205Z,8.90
2023-05-17T15:58:14.987Z,5.60
2023-05-17T16:01:12.435Z,5.80
2023-05-17T16:04:10.060Z,4.60
2023-05-17T16:07:07.693Z,5.60
2023-05-17T16:10:05.921Z,4.50
2023-05-17T16:13:03.700Z,5.80
2023-05-17T16:16:01.177Z,5.50
2023-05-17T16:18:58.902Z,5.60
2023-05-17T16:21:58.236Z,4.70
2023-05-17T16:24:55.839Z,4.50
2023-05-17T16:27:53.486Z,4.90
2023-05-17T16:30:51.040Z,7.00
2023-05-17T16:33:48.937Z,6.80
2023-05-17T16:36:47.916Z,5.30
2023-05-17T16:39:45.665Z,3.40
2023-05-17T16:42:44.937Z,5.60
2023-05-17T16:45:42.414Z,8.90
2023-05-17T16:48:41.419Z,7.40
2023-05-17T16:51:38.865Z,7.90
2023-05-17T16:54:37.210Z,4.40
2023-05-17T16:57:35.030Z,5.00
2023-05-17T17:00:32.908Z,5.60
2023-05-17T17:03:30.716Z,6.80
2023-05-17T17:06:28.357Z,5.40
2023-05-17T17:09:25.960Z,6.20
2023-05-17T17:12:25.240Z,7.20
2023-05-17T17:15:24.524Z,5.10
2023-05-17T17:18:21.956Z,5.70
2023-05-17T17:21:19.668Z,7.50
2023-05-17T17:24:17.416Z,4.90
2023-05-17T17:27:14.891Z,6.10
2023-05-17T17:30:13.155Z,5.80
2023-05-17T17:33:10.701Z,6.80
2023-05-17T17:36:09.472Z,5.10
2023-05-17T17:39:06.982Z,6.60
2023-05-17T17:42:04.631Z,7.30
2023-05-17T17:45:02.482Z,6.00
2023-05-17T17:47:59.975Z,6.80
2023-05-17T17:50:57.809Z,5.90
2023-05-17T17:53:55.317Z,5.30
2023-05-17T17:56:53.132Z,7.20
2023-05-17T17:59:50.903Z,5.80
2023-05-17T18:02:48.430Z,6.60
2023-05-17T18:05:46.747Z,7.40
2023-05-17T18:08:53.852Z,7.10
2023-05-17T18:11:51.622Z,6.00
2023-05-17T18:14:49.050Z,5.90
2023-05-17T18:17:47.181Z,6.90
2023-05-17T18:20:44.833Z,7.70
2023-05-17T18:23:42.572Z,5.20
2023-05-17T18:26:40.212Z,6.60
2023-05-17T18:29:37.800Z,7.70
2023-05-17T18:32:35.531Z,5.00
2023-05-17T18:35:33.489Z,7.40
2023-05-17T18:38:31.267Z,4.80
2023-05-17T18:41:28.719Z,7.20
2023-05-17T18:44:26.774Z,4.60
2023-05-17T18:47:24.851Z,5.10
2023-05-17T18:50:22.670Z,5.10
2023-05-17T18:53:20.954Z,7.00
2023-05-17T18:56:22.853Z,7.10
2023-05-17T19:02:20.405Z,4.60
2023-05-17T19:05:18.305Z,7.40
2023-05-17T19:08:15.853Z,6.40
2023-05-17T19:11:16.225Z,6.50
2023-05-17T19:14:16.303Z,9.00
2023-05-17T19:17:14.641Z,3.90
2023-05-17T19:20:12.569Z,6.30
2023-05-17T19:23:10.892Z,4.90
2023-05-17T19:26:08.677Z,5.40
2023-05-17T19:29:06.506Z,5.00
2023-05-17T19:32:05.708Z,5.60
2023-05-17T19:35:03.900Z,6.70
2023-05-17T19:38:03.818Z,5.80
2023-05-17T19:41:01.706Z,6.50
2023-05-17T19:43:59.640Z,8.90
2023-05-17T19:46:58.747Z,7.90
2023-05-17T19:49:56.783Z,9.60
2023-05-17T19:52:56.958Z,6.20
2023-05-17T19:55:56.835Z,7.50
2023-05-17T19:58:54.615Z,7.10
2023-05-17T20:01:52.763Z,7.30
2023-05-17T20:04:52.023Z,8.90
2023-05-17T20:07:50.597Z,7.30
2023-05-17T20:10:48.122Z,8.10
2023-05-17T20:13:46.665Z,10.40
2023-05-17T20:16:44.242Z,5.10
2023-05-17T20:19:42.598Z,5.00
2023-05-17T20:22:41.489Z,9.20
2023-05-17T20:25:41.110Z,7.20
2023-05-17T20:28:39.437Z,6.60
2023-05-17T20:31:36.991Z,6.10
2023-05-17T20:34:34.862Z,9.40
2023-05-17T20:37:32.369Z,7.30
2023-05-17T20:40:30.380Z,8.80
2023-05-17T20:43:29.382Z,5.30
2023-05-17T20:46:30.140Z,5.60
2023-05-17T20:49:28.192Z,9.10
2023-05-17T20:52:38.062Z,6.10
2023-05-17T20:55:36.807Z,9.60
2023-05-17T20:58:34.254Z,6.30
2023-05-17T21:01:32.386Z,6.90
2023-05-17T21:04:30.008Z,7.40
2023-05-17T21:07:30.257Z,7.90
2023-05-17T21:10:28.232Z,7.00
2023-05-17T21:13:26.437Z,6.80
2023-05-17T21:16:24.060Z,7.50
2023-05-17T21:19:21.669Z,9.60
2023-05-17T21:22:19.517Z,8.20
2023-05-17T21:25:16.975Z,6.70
2023-05-17T21:28:14.726Z,7.90
2023-05-17T21:31:12.457Z,6.20
2023-05-17T21:34:10.016Z,9.10
2023-05-17T21:37:07.806Z,5.00
2023-05-17T21:40:05.298Z,9.10
2023-05-17T21:43:03.045Z,6.10
2023-05-17T21:46:01.025Z,8.40
2023-05-17T21:48:58.504Z,10.60
2023-05-17T21:51:56.343Z,6.70
2023-05-17T21:54:53.838Z,9.20
2023-05-17T21:57:51.519Z,6.40
2023-05-17T22:00:49.059Z,8.20
2023-05-17T22:03:47.923Z,6.40
2023-05-17T22:06:46.193Z,9.40
2023-05-17T22:09:45.575Z,7.80
2023-05-17T22:12:43.266Z,10.40
2023-05-17T22:15:41.763Z,7.40
2023-05-17T22:18:40.054Z,8.10
2023-05-17T22:21:37.657Z,7.20
2023-05-17T22:24:35.484Z,8.00
2023-05-17T22:27:33.259Z,7.40
2023-05-17T22:30:30.888Z,6.60
2023-05-17T22:33:29.995Z,8.60
2023-05-17T22:36:27.602Z,8.30
2023-05-17T22:39:25.441Z,5.30
2023-05-17T22:42:22.978Z,10.80
2023-05-17T22:45:20.583Z,6.30
2023-05-17T22:48:20.176Z,8.50
2023-05-17T22:51:18.960Z,7.00
2023-05-17T22:54:16.722Z,6.80
2023-05-17T22:57:14.222Z,9.50
2023-05-17T23:00:15.024Z,8.90
2023-05-17T23:03:12.472Z,9.20
2023-05-17T23:06:10.614Z,6.80
2023-05-17T23:09:08.955Z,6.50
2023-05-17T23:12:06.556Z,7.80
2023-05-17T23:15:05.300Z,7.80
2023-05-17T23:18:03.300Z,11.00
2023-05-17T23:21:01.125Z,7.10
2023-05-17T23:24:00.165Z,6.20
2023-05-17T23:26:57.897Z,6.70
2023-05-17T23:29:56.055Z,10.00
2023-05-17T23:32:55.321Z,9.80
2023-05-17T23:35:55.468Z,8.00
2023-05-17T23:38:52.965Z,8.40
2023-05-17T23:41:50.653Z,7.60
2023-05-17T23:44:49.194Z,9.10
2023-05-17T23:47:47.762Z,9.90
2023-05-17T23:50:45.812Z,7.40
2023-05-17T23:53:43.333Z,6.90
2023-05-17T23:56:41.387Z,7.30
2023-05-17T23:59:38.878Z,9.70
